Time;durP1;ratioP1;P1;durP2;ratioP2;P2;SDS_P1;SDS_P2;PMS_P1;PMS_P2;Temp;Humidity;BMP_temperature;BMP_pressure;BME280_temperature;BME280_humidity;BME280_pressure;Samples;Min_cycle;Max_cycle;Signal;HPM_P1;HPM_P2
2022/01/13 00:01:15;;;;;;;91.93;23.03;;;5.90;99.90;;;;;;5116080;27;20040;-79
2022/01/13 00:03:41;;;;;;;90.82;22.58;;;6.20;99.90;;;;;;5120613;27;20381;-79
2022/01/13 00:06:07;;;;;;;89.83;22.23;;;6.30;99.90;;;;;;5119211;27;20139;-79
2022/01/13 00:08:32;;;;;;;89.25;22.90;;;5.90;99.90;;;;;;5118498;27;20272;-79
2022/01/13 00:10:58;;;;;;;106.43;23.60;;;6.00;99.90;;;;;;5119018;27;20039;-79
2022/01/13 00:13:31;;;;;;;77.37;21.27;;;6.40;99.90;;;;;;5120952;28;20085;-79
2022/01/13 00:16:25;;;;;;;102.95;25.02;;;6.00;99.90;;;;;;5122953;28;20284;-79
2022/01/13 00:19:03;;;;;;;86.95;21.40;;;5.80;99.90;;;;;;5123655;28;20427;-79
2022/01/13 00:21:37;;;;;;;92.93;22.05;;;5.70;99.90;;;;;;5115384;28;20050;-79
2022/01/13 00:24:05;;;;;;;88.22;21.10;;;5.80;99.90;;;;;;5122959;28;20029;-79
2022/01/13 00:26:33;;;;;;;82.38;19.70;;;5.70;99.90;;;;;;5099018;28;20039;-79
2022/01/13 00:29:02;;;;;;;84.82;21.98;;;5.80;99.90;;;;;;5111467;28;20081;-79
2022/01/13 00:31:32;;;;;;;82.10;20.85;;;5.70;99.90;;;;;;5114132;28;20113;-79
2022/01/13 00:34:00;;;;;;;79.05;20.73;;;5.70;99.90;;;;;;5097900;28;20066;-79
2022/01/13 00:36:29;;;;;;;77.30;19.58;;;5.70;99.90;;;;;;5124598;28;20118;-79
2022/01/13 00:38:56;;;;;;;90.25;21.05;;;5.60;99.90;;;;;;5124915;28;20052;-79
2022/01/13 00:41:23;;;;;;;58.47;18.58;;;5.80;99.90;;;;;;5112600;28;20055;-79
2022/01/13 00:43:49;;;;;;;61.45;16.20;;;6.40;99.90;;;;;;5100494;28;20518;-79
2022/01/13 00:46:21;;;;;;;51.35;14.32;;;6.10;99.90;;;;;;5100661;28;20625;-78
2022/01/13 00:48:51;;;;;;;51.83;15.30;;;5.60;99.90;;;;;;5097518;28;20448;-79
2022/01/13 00:51:18;;;;;;;56.33;15.20;;;5.70;99.90;;;;;;5117529;28;20491;-79
2022/01/13 00:53:44;;;;;;;47.55;13.82;;;6.40;99.90;;;;;;5098469;28;20128;-78
2022/01/13 00:56:10;;;;;;;57.55;14.88;;;6.20;99.90;;;;;;5121971;28;20096;-79
2022/01/13 00:58:36;;;;;;;57.20;14.70;;;5.80;99.90;;;;;;5119930;28;20075;-79
2022/01/13 01:01:05;;;;;;;53.03;15.00;;;5.50;99.90;;;;;;5120432;27;20038;-79
2022/01/13 01:03:31;;;;;;;49.80;15.65;;;5.60;99.90;;;;;;5114161;27;20114;-79
2022/01/13 01:05:57;;;;;;;51.22;15.15;;;5.60;99.90;;;;;;5118090;27;20053;-79
2022/01/13 01:08:24;;;;;;;43.90;15.68;;;5.60;99.90;;;;;;5118599;27;20048;-79
2022/01/13 01:10:53;;;;;;;60.63;16.35;;;5.60;99.90;;;;;;5101562;27;20114;-79
2022/01/13 01:13:22;;;;;;;55.15;16.25;;;5.70;99.90;;;;;;5116308;27;20043;-79
2022/01/13 01:15:53;;;;;;;53.15;15.75;;;5.70;99.90;;;;;;5115432;27;20043;-79
2022/01/13 01:18:37;;;;;;;56.10;17.75;;;5.70;99.90;;;;;;5131070;27;20043;-79
2022/01/13 01:29:09;;;;;;;60.72;18.23;;;5.60;99.90;;;;;;5110807;28;20051;-79
2022/01/13 01:31:37;;;;;;;60.78;17.95;;;6.00;99.90;;;;;;5115663;27;20050;-79
2022/01/13 01:36:35;;;;;;;66.03;18.63;;;5.60;99.90;;;;;;5125941;27;20054;-79
2022/01/13 01:39:01;;;;;;;66.63;19.60;;;5.50;99.90;;;;;;5133190;27;20427;-80
2022/01/13 01:41:27;;;;;;;59.05;19.55;;;5.50;99.90;;;;;;5123332;27;20040;-79
2022/01/13 01:43:59;;;;;;;69.90;18.33;;;5.50;99.90;;;;;;5110866;27;21149;-79
2022/01/13 01:46:26;;;;;;;69.18;18.77;;;5.60;99.90;;;;;;5123557;27;20210;-80
2022/01/13 01:48:52;;;;;;;66.93;18.73;;;5.60;99.90;;;;;;5111469;27;20070;-80
2022/01/13 01:51:18;;;;;;;60.72;18.38;;;5.50;99.90;;;;;;5133121;27;20109;-80
2022/01/13 01:53:44;;;;;;;66.38;18.83;;;5.60;99.90;;;;;;5118998;27;20114;-79
2022/01/13 01:56:09;;;;;;;62.65;18.70;;;6.20;99.90;;;;;;5100782;28;20039;-79
2022/01/13 01:58:36;;;;;;;69.85;18.65;;;5.50;99.90;;;;;;5125589;27;20487;-79
2022/01/13 02:01:02;;;;;;;66.70;17.38;;;5.40;99.90;;;;;;5120220;27;20569;-79
2022/01/13 02:03:30;;;;;;;63.92;18.08;;;5.90;99.90;;;;;;5114559;27;20114;-79
2022/01/13 02:05:56;;;;;;;59.85;17.15;;;5.50;99.90;;;;;;5112646;27;20097;-80
2022/01/13 02:08:22;;;;;;;;;;;5.60;99.90;;;;;;5128179;27;20114;-80
2022/01/13 02:10:48;;;;;;;64.18;18.35;;;5.50;99.90;;;;;;5118161;27;20011;-80
2022/01/13 02:13:20;;;;;;;68.50;19.25;;;5.50;99.90;;;;;;5098979;27;20050;-80
2022/01/13 02:15:59;;;;;;;69.07;18.30;;;5.50;99.90;;;;;;5101030;27;20075;-80
2022/01/13 02:18:24;;;;;;;67.43;18.13;;;5.60;99.90;;;;;;5121740;27;20040;-79
2022/01/13 02:20:53;;;;;;;62.63;18.17;;;5.50;99.90;;;;;;5121344;27;20042;-79
2022/01/13 02:23:36;;;;;;;69.38;17.83;;;5.40;99.90;;;;;;5127976;27;20389;-79
2022/01/13 02:26:03;;;;;;;65.75;18.23;;;5.40;99.90;;;;;;5136419;27;20028;-80
2022/01/13 02:28:29;;;;;;;62.13;17.08;;;5.50;99.90;;;;;;5100660;27;20035;-79
2022/01/13 02:30:55;;;;;;;64.65;18.13;;;5.40;99.90;;;;;;5105175;28;20690;-79
2022/01/13 02:33:21;;;;;;;55.03;18.52;;;5.50;99.90;;;;;;5127238;27;20048;-79
2022/01/13 02:35:47;;;;;;;57.78;17.85;;;5.60;99.90;;;;;;5119460;27;20107;-79
2022/01/13 02:38:13;;;;;;;61.53;17.90;;;5.40;99.90;;;;;;5119570;27;20039;-79
2022/01/13 02:40:39;;;;;;;50.08;16.60;;;5.40;99.90;;;;;;5110070;27;20298;-79
2022/01/13 02:43:05;;;;;;;63.30;17.40;;;5.40;99.90;;;;;;5124337;27;20039;-79
2022/01/13 02:45:35;;;;;;;64.07;17.60;;;5.40;99.90;;;;;;5116002;27;20069;-80
2022/01/13 02:48:26;;;;;;;58.55;16.13;;;5.60;99.90;;;;;;5118032;27;20043;-79
2022/01/13 02:50:55;;;;;;;57.55;17.30;;;5.50;99.90;;;;;;5088301;27;20039;-79
2022/01/13 02:53:21;;;;;;;60.60;17.30;;;5.40;99.90;;;;;;5126583;27;20040;-80
2022/01/13 02:55:47;;;;;;;62.63;16.33;;;5.40;99.90;;;;;;5104399;27;20117;-80
2022/01/13 02:58:15;;;;;;;55.95;16.77;;;6.10;99.90;;;;;;5121707;27;20134;-79
2022/01/13 03:00:41;;;;;;;61.70;16.75;;;5.40;99.90;;;;;;5121619;27;20424;-80
2022/01/13 03:03:07;;;;;;;57.40;17.63;;;5.40;99.90;;;;;;5116368;27;20042;-80
2022/01/13 03:05:37;;;;;;;52.70;17.00;;;5.40;99.90;;;;;;5104441;27;20058;-79
2022/01/13 03:08:04;;;;;;;64.68;16.88;;;5.50;99.90;;;;;;5091740;27;20108;-80
2022/01/13 03:10:30;;;;;;;69.00;18.25;;;5.50;99.90;;;;;;5130609;27;20058;-79
2022/01/13 03:12:57;;;;;;;63.35;17.08;;;5.50;99.90;;;;;;5109534;27;20042;-79
2022/01/13 03:15:23;;;;;;;66.35;17.80;;;5.80;99.90;;;;;;5124616;27;20176;-79
2022/01/13 03:17:48;;;;;;;60.08;18.02;;;5.50;99.90;;;;;;5125691;27;20533;-79
2022/01/13 03:20:14;;;;;;;74.37;16.27;;;5.40;99.90;;;;;;5114961;27;20276;-80
2022/01/13 03:22:40;;;;;;;63.33;17.25;;;5.40;99.90;;;;;;5127303;27;20035;-80
2022/01/13 03:25:06;;;;;;;75.40;19.00;;;5.50;99.90;;;;;;5125131;27;20026;-79
2022/01/13 03:27:35;;;;;;;76.20;17.65;;;5.40;99.90;;;;;;5130779;27;20061;-79
2022/01/13 03:30:05;;;;;;;66.60;17.35;;;5.90;99.90;;;;;;5086819;27;20043;-79
2022/01/13 03:32:31;;;;;;;78.07;18.70;;;5.40;99.90;;;;;;5126792;27;20042;-80
2022/01/13 03:34:56;;;;;;;62.85;17.48;;;5.40;99.90;;;;;;5119156;27;20035;-79
2022/01/13 03:37:22;;;;;;;69.05;17.45;;;5.40;99.90;;;;;;5119103;27;20034;-79
2022/01/13 03:39:48;;;;;;;73.85;18.30;;;6.20;99.90;;;;;;5121923;27;20039;-79
2022/01/13 03:42:14;;;;;;;68.75;18.13;;;5.50;99.90;;;;;;5109175;27;20639;-79
2022/01/13 03:44:40;;;;;;;87.47;19.00;;;5.40;99.90;;;;;;5112383;27;20062;-79
2022/01/13 03:47:05;;;;;;;74.50;17.52;;;5.40;99.90;;;;;;5106863;27;20047;-80
2022/01/13 03:49:32;;;;;;;76.20;18.85;;;5.30;99.90;;;;;;5129203;27;20027;-79
2022/01/13 03:52:02;;;;;;;69.50;17.40;;;5.30;99.90;;;;;;5102354;27;20039;-80
2022/01/13 03:54:31;;;;;;;74.72;18.40;;;5.30;99.90;;;;;;5122462;27;20047;-79
2022/01/13 03:56:57;;;;;;;80.15;19.92;;;5.70;99.90;;;;;;5128576;27;20046;-80
2022/01/13 03:59:45;;;;;;;96.27;20.60;;;5.30;99.90;;;;;;5124912;27;20031;-79
2022/01/13 04:02:13;;;;;;;94.95;20.80;;;5.40;99.90;;;;;;5130436;27;20039;-79
2022/01/13 04:04:49;;;;;;;89.03;19.38;;;5.30;99.90;;;;;;5114562;27;20041;-80
2022/01/13 04:07:24;;;;;;;88.93;20.38;;;5.30;99.90;;;;;;5120323;27;20059;-79
2022/01/13 04:09:50;;;;;;;112.78;20.58;;;5.30;99.90;;;;;;5128564;27;20035;-79
2022/01/13 04:12:17;;;;;;;81.95;20.27;;;6.20;99.90;;;;;;5101007;28;20039;-79
2022/01/13 04:17:10;;;;;;;140.30;23.08;;;5.30;99.90;;;;;;5117755;28;20035;-79
2022/01/13 04:19:36;;;;;;;103.30;21.45;;;6.20;99.90;;;;;;5117858;28;20042;-80
2022/01/13 04:22:06;;;;;;;128.13;22.27;;;6.20;99.90;;;;;;5120035;28;20039;-80
2022/01/13 04:24:32;;;;;;;100.93;19.92;;;5.60;99.90;;;;;;5127919;28;20043;-79
2022/01/13 04:26:58;;;;;;;116.82;22.27;;;5.40;99.90;;;;;;5124927;28;20039;-80
2022/01/13 04:29:36;;;;;;;122.75;23.05;;;5.40;99.90;;;;;;5120623;28;20027;-79
2022/01/13 04:32:04;;;;;;;106.15;21.73;;;5.40;99.90;;;;;;5123215;28;20110;-79
2022/01/13 04:34:29;;;;;;;137.43;22.40;;;5.40;99.90;;;;;;5114736;28;20040;-79
2022/01/13 04:36:56;;;;;;;128.88;23.42;;;5.40;99.90;;;;;;5131955;27;20035;-79
2022/01/13 04:39:22;;;;;;;;;;;6.50;99.90;;;;;;5107556;27;20041;-79
2022/01/13 04:41:48;;;;;;;78.22;19.75;;;5.40;99.90;;;;;;5134371;27;20332;-79
2022/01/13 04:44:16;;;;;;;;;;;5.40;99.90;;;;;;5124542;27;20043;-80
2022/01/13 04:46:43;;;;;;;130.40;23.40;;;5.40;99.90;;;;;;5132041;27;20408;-79
2022/01/13 04:49:09;;;;;;;107.57;22.30;;;5.60;99.90;;;;;;5118976;27;20118;-79
2022/01/13 04:51:36;;;;;;;105.90;22.15;;;6.20;99.90;;;;;;5121239;27;20114;-79
2022/01/13 04:54:02;;;;;;;102.00;21.23;;;5.50;99.90;;;;;;5120888;27;20039;-80
2022/01/13 04:56:39;;;;;;;95.22;20.02;;;5.50;99.90;;;;;;5126779;27;20047;-80
2022/01/13 04:59:06;;;;;;;120.53;23.77;;;5.40;99.90;;;;;;5121164;27;20036;-79
2022/01/13 05:01:31;;;;;;;105.55;20.92;;;5.50;99.90;;;;;;5106889;27;20046;-79
2022/01/13 05:03:57;;;;;;;101.35;20.70;;;5.50;99.90;;;;;;5104405;27;20031;-80
2022/01/13 05:06:23;;;;;;;94.22;20.70;;;5.50;99.90;;;;;;5125703;27;20073;-79
2022/01/13 05:08:49;;;;;;;116.32;22.00;;;6.30;99.90;;;;;;5115757;27;20122;-79
2022/01/13 05:11:16;;;;;;;117.50;22.65;;;5.50;99.90;;;;;;5107043;27;20164;-79
2022/01/13 05:13:43;;;;;;;125.10;23.77;;;5.50;99.90;;;;;;5128892;27;20169;-80
2022/01/13 05:16:17;;;;;;;119.25;22.85;;;5.40;99.90;;;;;;5128809;27;20176;-79
2022/01/13 05:18:55;;;;;;;146.68;23.95;;;5.40;99.90;;;;;;5130378;27;20047;-80
2022/01/13 05:21:37;;;;;;;133.30;22.25;;;5.40;99.90;;;;;;5114813;27;20047;-80
2022/01/13 05:24:03;;;;;;;99.35;19.73;;;5.40;99.90;;;;;;5102129;27;20506;-80
2022/01/13 05:26:28;;;;;;;185.60;23.48;;;5.40;99.90;;;;;;5120851;27;20035;-80
2022/01/13 05:28:54;;;;;;;184.93;24.33;;;5.50;99.90;;;;;;5113328;28;20039;-79
2022/01/13 05:31:20;;;;;;;132.07;20.87;;;5.40;99.90;;;;;;5119012;27;20032;-81
2022/01/13 05:33:45;;;;;;;125.87;21.03;;;5.40;99.90;;;;;;5116412;27;20277;-80
2022/01/13 05:36:13;;;;;;;149.20;21.15;;;5.40;99.90;;;;;;5113040;27;20863;-80
2022/01/13 05:38:42;;;;;;;137.43;20.98;;;5.40;99.90;;;;;;5123673;27;20775;-80
2022/01/13 05:41:07;;;;;;;176.38;24.20;;;5.50;99.90;;;;;;5127925;27;20483;-80
2022/01/13 05:43:33;;;;;;;166.25;22.85;;;5.60;99.90;;;;;;5106115;27;20096;-79
2022/01/13 05:45:59;;;;;;;171.00;23.35;;;5.40;99.90;;;;;;5123508;27;20047;-79
2022/01/13 05:48:25;;;;;;;131.55;22.17;;;5.50;99.90;;;;;;5129678;27;20535;-80
2022/01/13 05:50:51;;;;;;;137.07;22.33;;;5.50;99.90;;;;;;5119521;27;20031;-77
2022/01/13 05:53:16;;;;;;;146.37;23.17;;;6.30;99.90;;;;;;5126258;27;20039;-77
2022/01/13 05:55:42;;;;;;;146.50;22.90;;;5.50;99.90;;;;;;5108052;27;20035;-77
2022/01/13 05:58:08;;;;;;;196.18;25.77;;;5.50;99.90;;;;;;5113395;27;20035;-76
2022/01/13 06:00:33;;;;;;;135.60;23.15;;;5.60;99.90;;;;;;5102335;27;20035;-76
2022/01/13 06:02:59;;;;;;;194.45;26.95;;;6.20;99.90;;;;;;5122618;27;20490;-77
2022/01/13 06:05:26;;;;;;;165.88;25.10;;;5.60;99.90;;;;;;5103755;27;20039;-77
2022/01/13 06:07:53;;;;;;;108.45;21.33;;;6.20;99.90;;;;;;5104879;27;20123;-77
2022/01/13 06:10:19;;;;;;;161.60;24.88;;;5.60;99.90;;;;;;5070502;27;20036;-77
2022/01/13 06:12:49;;;;;;;138.18;23.77;;;5.60;99.90;;;;;;5127717;27;20038;-77
2022/01/13 06:15:20;;;;;;;133.95;25.55;;;5.80;99.90;;;;;;5100627;27;20047;-77
2022/01/13 06:17:49;;;;;;;132.80;24.50;;;6.20;99.90;;;;;;5105403;27;20035;-76
2022/01/13 06:20:16;;;;;;;124.50;22.98;;;5.60;99.90;;;;;;5122072;27;20047;-77
2022/01/13 06:22:43;;;;;;;137.60;25.65;;;5.70;99.90;;;;;;5124622;27;20476;-76
2022/01/13 06:25:11;;;;;;;116.60;23.77;;;5.80;99.90;;;;;;5119937;27;20031;-77
2022/01/13 06:27:36;;;;;;;104.40;21.45;;;5.70;99.90;;;;;;5121160;27;20073;-77
2022/01/13 06:30:04;;;;;;;127.28;23.85;;;5.80;99.90;;;;;;5124896;27;20435;-77
2022/01/13 06:32:30;;;;;;;106.35;23.33;;;5.80;99.90;;;;;;5121789;27;20532;-77
2022/01/13 06:34:55;;;;;;;123.32;25.33;;;5.90;99.90;;;;;;5124590;27;20043;-77
2022/01/13 06:37:21;;;;;;;120.80;24.73;;;6.10;99.90;;;;;;5119077;27;20044;-77
2022/01/13 06:39:47;;;;;;;106.23;24.53;;;5.80;99.90;;;;;;5124409;27;20281;-77
2022/01/13 06:42:13;;;;;;;106.20;22.90;;;7.20;99.90;;;;;;5119572;27;20043;-77
2022/01/13 06:44:39;;;;;;;108.60;22.98;;;5.90;99.90;;;;;;5121031;27;20039;-77
2022/01/13 06:47:05;;;;;;;105.90;22.70;;;6.00;99.90;;;;;;5121999;27;20421;-77
2022/01/13 06:49:31;;;;;;;;;;;6.00;99.90;;;;;;5103328;27;20039;-77
2022/01/13 06:51:57;;;;;;;99.95;23.10;;;6.00;99.90;;;;;;5121223;27;19915;-77
2022/01/13 06:54:23;;;;;;;115.97;25.02;;;6.00;99.90;;;;;;5118489;27;20043;-77
2022/01/13 06:56:50;;;;;;;118.20;24.48;;;6.00;99.90;;;;;;5123835;27;20066;-77
2022/01/13 06:59:16;;;;;;;97.88;24.77;;;6.10;99.90;;;;;;5122038;27;20422;-77
2022/01/13 07:01:42;;;;;;;101.07;23.88;;;6.10;99.90;;;;;;5121250;27;20035;-77
2022/01/13 07:04:09;;;;;;;134.55;26.30;;;6.10;99.90;;;;;;5119238;27;20072;-77
2022/01/13 07:06:36;;;;;;;110.72;26.40;;;6.10;99.90;;;;;;5122828;27;20140;-77
2022/01/13 07:09:05;;;;;;;108.15;24.63;;;6.80;99.90;;;;;;5103070;27;20058;-77
2022/01/13 07:11:31;;;;;;;115.43;23.90;;;6.90;99.90;;;;;;5125051;27;20047;-77
2022/01/13 07:13:56;;;;;;;115.18;25.55;;;6.20;99.90;;;;;;5115142;27;20596;-77
2022/01/13 07:16:22;;;;;;;134.13;27.30;;;6.20;99.90;;;;;;5116252;27;20493;-77
2022/01/13 07:18:48;;;;;;;111.20;25.52;;;6.40;99.90;;;;;;5119955;27;20031;-77
2022/01/13 07:21:16;;;;;;;102.88;24.50;;;6.20;99.90;;;;;;5083990;27;20098;-77
2022/01/13 07:23:42;;;;;;;125.22;27.00;;;6.20;99.90;;;;;;5102688;27;20031;-77
2022/01/13 07:26:08;;;;;;;135.95;26.17;;;6.20;99.90;;;;;;5100571;28;20032;-77
2022/01/13 07:28:34;;;;;;;119.20;26.77;;;6.20;99.90;;;;;;5120705;27;20039;-77
2022/01/13 07:30:59;;;;;;;140.55;25.80;;;6.20;99.90;;;;;;5114615;27;20032;-77
2022/01/13 07:33:25;;;;;;;106.60;23.87;;;6.20;99.90;;;;;;5120631;27;20043;-76
2022/01/13 07:35:51;;;;;;;119.50;25.33;;;6.30;99.90;;;;;;5098248;28;20189;-77
2022/01/13 07:38:17;;;;;;;105.85;24.48;;;6.20;99.90;;;;;;5119341;27;20051;-77
2022/01/13 07:40:43;;;;;;;;;;;6.20;99.90;;;;;;5122348;27;20043;-77
2022/01/13 07:43:09;;;;;;;108.00;24.52;;;6.20;99.90;;;;;;5118270;27;19924;-77
2022/01/13 07:45:35;;;;;;;113.43;23.38;;;6.10;99.90;;;;;;5103419;27;20027;-77
2022/01/13 07:48:00;;;;;;;109.38;23.02;;;6.20;99.90;;;;;;5125798;27;20069;-77
2022/01/13 07:50:26;;;;;;;114.90;24.17;;;6.30;99.90;;;;;;5103634;27;20043;-77
2022/01/13 07:52:52;;;;;;;102.60;23.05;;;6.30;99.90;;;;;;5123233;27;20114;-77
2022/01/13 07:55:18;;;;;;;120.50;25.48;;;6.10;99.90;;;;;;5121686;27;20042;-77
2022/01/13 07:57:44;;;;;;;97.40;22.45;;;6.30;99.90;;;;;;5105192;27;20053;-77
2022/01/13 08:00:12;;;;;;;77.18;19.45;;;6.50;99.90;;;;;;5120468;27;20073;-77
2022/01/13 08:02:38;;;;;;;95.97;22.55;;;6.30;99.90;;;;;;5120360;27;20060;-77
2022/01/13 08:05:05;;;;;;;95.40;22.38;;;6.40;99.90;;;;;;5106498;28;20028;-77
2022/01/13 08:07:31;;;;;;;85.93;20.50;;;6.30;99.90;;;;;;5119789;27;20393;-77
2022/01/13 08:09:57;;;;;;;89.63;21.17;;;6.30;99.90;;;;;;5120329;27;20043;-77
2022/01/13 08:12:22;;;;;;;74.37;18.97;;;6.20;99.90;;;;;;5118730;27;20420;-77
2022/01/13 08:14:50;;;;;;;87.37;22.87;;;6.30;99.90;;;;;;5106336;28;20291;-77
2022/01/13 08:20:06;;;;;;;99.18;23.23;;;6.20;99.90;;;;;;5072908;28;20406;-77
2022/01/13 08:22:32;;;;;;;90.53;22.70;;;6.30;99.90;;;;;;5117891;28;20631;-78
2022/01/13 08:24:58;;;;;;;84.82;22.55;;;6.30;99.90;;;;;;5103245;28;20067;-78
2022/01/13 08:27:23;;;;;;;78.17;21.97;;;6.30;99.90;;;;;;5100826;28;20046;-77
2022/01/13 08:29:49;;;;;;;82.43;22.42;;;6.30;99.90;;;;;;5122012;28;20285;-77
2022/01/13 08:32:15;;;;;;;76.03;21.27;;;6.30;99.90;;;;;;5103058;28;20043;-77
2022/01/13 08:34:40;;;;;;;76.72;19.33;;;6.30;99.90;;;;;;5085769;28;20042;-77
2022/01/13 08:37:06;;;;;;;75.20;20.30;;;6.30;99.90;;;;;;5100484;28;20047;-77
2022/01/13 08:39:38;;;;;;;81.00;20.15;;;6.40;99.90;;;;;;5119606;28;20074;-77
2022/01/13 08:42:05;;;;;;;75.78;19.58;;;6.30;99.90;;;;;;5104679;28;20039;-78
2022/01/13 08:44:30;;;;;;;83.22;23.25;;;6.40;99.90;;;;;;5119890;28;20645;-77
2022/01/13 08:46:56;;;;;;;77.90;20.70;;;6.30;99.90;;;;;;5120391;28;20039;-78
2022/01/13 08:49:22;;;;;;;74.50;20.43;;;6.60;99.90;;;;;;5100778;28;20088;-78
2022/01/13 08:51:47;;;;;;;84.97;20.70;;;6.30;99.90;;;;;;5119877;28;20316;-77
2022/01/13 08:54:13;;;;;;;83.70;21.70;;;6.20;99.90;;;;;;5119921;28;20048;-77
2022/01/13 08:56:39;;;;;;;84.00;21.55;;;6.30;99.90;;;;;;5119581;28;20052;-77
2022/01/13 08:59:05;;;;;;;94.13;22.95;;;6.30;99.90;;;;;;5083227;28;20482;-78
2022/01/13 09:01:31;;;;;;;107.60;23.67;;;6.20;99.90;;;;;;5119812;28;20054;-77
2022/01/13 09:03:59;;;;;;;78.82;21.27;;;6.30;99.90;;;;;;5121862;28;20039;-78
2022/01/13 09:06:25;;;;;;;76.53;20.27;;;6.30;99.90;;;;;;5119898;28;20118;-77
2022/01/13 09:08:51;;;;;;;82.50;21.55;;;6.30;99.90;;;;;;5118451;28;20491;-78
2022/01/13 09:11:17;;;;;;;76.75;20.42;;;6.40;99.90;;;;;;5102829;28;20085;-78
2022/01/13 09:13:42;;;;;;;79.55;20.48;;;6.30;99.90;;;;;;5120183;28;20089;-77
2022/01/13 09:16:16;;;;;;;78.45;22.63;;;6.30;99.90;;;;;;5119443;28;20036;-77
2022/01/13 09:21:23;;;;;;;68.05;21.20;;;6.30;99.90;;;;;;5117881;28;20437;-77
2022/01/13 09:23:49;;;;;;;70.20;20.70;;;6.30;99.90;;;;;;5121565;27;20149;-78
2022/01/13 09:26:15;;;;;;;70.03;21.02;;;6.30;99.90;;;;;;5120932;27;20051;-78
2022/01/13 09:28:41;;;;;;;73.13;20.70;;;6.30;99.90;;;;;;5120300;27;20050;-77
2022/01/13 09:31:07;;;;;;;74.38;21.23;;;6.40;99.90;;;;;;5125127;27;20035;-77
2022/01/13 09:33:33;;;;;;;68.78;19.98;;;6.70;99.90;;;;;;5103971;28;20097;-76
2022/01/13 09:36:00;;;;;;;67.97;19.42;;;6.40;99.90;;;;;;5103361;28;20046;-76
2022/01/13 09:38:26;;;;;;;74.68;21.35;;;7.20;99.90;;;;;;5105971;27;20078;-76
2022/01/13 09:40:53;;;;;;;67.63;21.58;;;6.50;99.90;;;;;;5108199;27;20075;-76
2022/01/13 09:43:23;;;;;;;73.20;21.40;;;6.40;99.90;;;;;;5125666;27;20042;-76
2022/01/13 09:45:51;;;;;;;67.30;20.95;;;6.40;99.90;;;;;;5120129;27;20096;-76
2022/01/13 09:48:18;;;;;;;71.38;21.77;;;6.50;99.90;;;;;;5122589;27;20038;-76
2022/01/13 09:50:46;;;;;;;76.10;22.27;;;6.50;99.90;;;;;;5093519;27;20057;-76
2022/01/13 09:53:12;;;;;;;74.47;22.40;;;6.50;99.90;;;;;;5115652;27;20079;-76
2022/01/13 09:55:42;;;;;;;71.43;22.10;;;6.50;99.90;;;;;;5119668;27;20128;-76
2022/01/13 09:58:12;;;;;;;72.53;22.33;;;6.50;99.90;;;;;;5122778;27;20514;-76
2022/01/13 10:00:43;;;;;;;70.30;21.48;;;6.50;99.90;;;;;;5120515;27;20081;-76
2022/01/13 10:03:14;;;;;;;69.97;20.85;;;6.50;99.90;;;;;;5120979;27;20122;-76
2022/01/13 10:05:48;;;;;;;70.00;22.45;;;6.60;99.90;;;;;;5123881;27;20100;-76
2022/01/13 10:08:14;;;;;;;52.92;19.42;;;6.60;99.90;;;;;;5122579;27;20048;-76
2022/01/13 10:10:41;;;;;;;50.83;18.85;;;6.90;99.90;;;;;;5122183;27;20395;-76
2022/01/13 10:13:10;;;;;;;60.28;20.27;;;6.70;99.90;;;;;;5105203;27;20043;-76
2022/01/13 10:18:35;;;;;;;57.40;20.60;;;6.80;99.90;;;;;;5122135;27;20047;-76
2022/01/13 10:21:09;;;;;;;61.60;21.13;;;6.70;99.90;;;;;;5105140;27;20114;-76
2022/01/13 10:23:35;;;;;;;64.00;21.55;;;6.70;99.90;;;;;;5119412;27;20035;-76
2022/01/13 10:26:09;;;;;;;71.93;22.05;;;6.70;99.90;;;;;;5110078;27;20076;-76
2022/01/13 10:28:35;;;;;;;56.65;20.70;;;6.70;99.90;;;;;;5104761;28;20035;-76
2022/01/13 10:31:01;;;;;;;60.10;20.35;;;6.70;99.90;;;;;;5121790;27;20033;-76
2022/01/13 10:33:29;;;;;;;52.30;18.63;;;6.60;99.90;;;;;;5107100;27;20456;-76
2022/01/13 10:36:10;;;;;;;59.60;20.25;;;6.70;99.90;;;;;;5104389;27;20109;-76
2022/01/13 10:38:53;;;;;;;52.80;19.40;;;6.70;99.90;;;;;;5117283;27;20035;-76
2022/01/13 10:41:48;;;;;;;56.75;19.92;;;6.80;99.90;;;;;;5100131;27;20107;-76
2022/01/13 10:44:22;;;;;;;66.05;21.48;;;6.70;99.90;;;;;;5118436;27;20046;-76
2022/01/13 10:47:04;;;;;;;52.28;18.98;;;6.70;99.90;;;;;;5102839;27;20104;-76
2022/01/13 10:49:31;;;;;;;56.22;19.25;;;6.70;99.90;;;;;;5120261;27;20046;-76
2022/01/13 10:52:26;;;;;;;58.42;19.83;;;6.70;99.90;;;;;;5122652;27;20039;-76
2022/01/13 10:54:59;;;;;;;60.30;20.60;;;6.70;99.90;;;;;;5114566;27;20119;-76
2022/01/13 10:57:26;;;;;;;67.40;22.20;;;6.70;99.90;;;;;;5106068;27;20090;-76
2022/01/13 10:59:52;;;;;;;64.47;20.63;;;6.70;99.90;;;;;;5123919;27;20414;-76
2022/01/13 11:02:19;;;;;;;60.25;21.75;;;6.70;99.90;;;;;;5119317;27;20036;-76
2022/01/13 11:04:46;;;;;;;65.40;21.23;;;6.80;99.90;;;;;;5099325;27;20047;-76
2022/01/13 11:07:24;;;;;;;68.97;21.20;;;6.80;99.90;;;;;;5123838;27;20051;-76
2022/01/13 11:09:58;;;;;;;67.68;22.73;;;6.90;99.90;;;;;;5084727;27;20048;-76
2022/01/13 11:12:54;;;;;;;67.03;21.85;;;6.80;99.90;;;;;;5106186;27;20070;-76
2022/01/13 11:15:20;;;;;;;74.57;22.83;;;6.80;99.90;;;;;;5118653;27;20039;-76
2022/01/13 11:17:46;;;;;;;64.25;23.02;;;6.70;99.90;;;;;;5121919;27;20035;-75
2022/01/13 11:20:15;;;;;;;66.20;20.80;;;6.80;99.90;;;;;;5126448;27;20407;-76
2022/01/13 11:22:43;;;;;;;61.15;21.45;;;6.80;99.90;;;;;;5120980;27;20035;-76
2022/01/13 11:25:11;;;;;;;56.35;18.77;;;7.00;99.90;;;;;;5108782;27;20043;-76
2022/01/13 11:27:38;;;;;;;62.30;20.65;;;6.80;99.90;;;;;;5121798;27;20074;-76
2022/01/13 11:30:08;;;;;;;64.45;22.13;;;7.10;99.90;;;;;;5119387;27;20046;-76
2022/01/13 11:32:34;;;;;;;64.93;19.52;;;6.80;99.90;;;;;;5103130;27;20091;-76
2022/01/13 11:35:01;;;;;;;56.63;21.85;;;6.90;99.90;;;;;;5115581;27;20070;-75
2022/01/13 11:37:30;;;;;;;47.33;18.88;;;7.00;99.90;;;;;;5101733;27;20091;-76
2022/01/13 11:39:58;;;;;;;55.85;20.08;;;6.90;99.90;;;;;;5123102;27;20070;-76
2022/01/13 11:42:24;;;;;;;53.42;20.45;;;6.90;99.90;;;;;;5119466;27;20114;-76
2022/01/13 11:45:19;;;;;;;52.10;19.88;;;6.90;99.90;;;;;;5119515;27;20078;-75
2022/01/13 11:47:45;;;;;;;63.72;20.33;;;6.90;99.90;;;;;;5119116;27;20047;-76
2022/01/13 11:50:21;;;;;;;56.65;20.42;;;6.90;99.90;;;;;;5104122;27;20039;-76
2022/01/13 11:52:52;;;;;;;49.60;18.70;;;6.90;99.90;;;;;;5118367;27;20468;-76
2022/01/13 11:55:41;;;;;;;61.42;23.50;;;7.10;99.90;;;;;;5104081;27;20102;-76
2022/01/13 11:58:19;;;;;;;47.35;17.48;;;7.10;99.90;;;;;;5101089;27;20030;-76
2022/01/13 12:00:48;;;;;;;57.85;20.83;;;6.90;99.90;;;;;;5118777;27;20451;-76
2022/01/13 12:03:34;;;;;;;52.13;20.75;;;6.90;99.90;;;;;;5115462;27;20050;-76
2022/01/13 12:06:02;;;;;;;47.13;19.40;;;7.30;99.90;;;;;;5119361;27;20075;-76
2022/01/13 12:08:56;;;;;;;55.33;19.88;;;7.00;99.90;;;;;;5123851;27;20043;-76
2022/01/13 12:11:46;;;;;;;52.78;20.50;;;7.00;99.90;;;;;;5119203;27;20047;-76
2022/01/13 12:14:29;;;;;;;54.50;20.30;;;7.00;99.90;;;;;;5123573;27;20118;-76
2022/01/13 12:17:11;;;;;;;51.88;19.83;;;7.00;99.90;;;;;;5123044;27;20046;-75
2022/01/13 12:19:42;;;;;;;53.78;20.50;;;7.00;99.90;;;;;;5122315;27;20034;-76
2022/01/13 12:22:14;;;;;;;55.13;21.52;;;7.00;99.90;;;;;;5125675;27;20043;-76
2022/01/13 12:24:58;;;;;;;51.85;20.92;;;7.00;99.90;;;;;;5123443;27;20031;-76
2022/01/13 12:27:45;;;;;;;47.83;21.40;;;7.10;99.90;;;;;;5124924;27;20483;-76
2022/01/13 12:30:29;;;;;;;47.33;20.30;;;7.00;99.90;;;;;;5121902;28;20035;-76
2022/01/13 12:33:00;;;;;;;47.50;18.90;;;7.10;99.90;;;;;;5126469;27;20094;-76
2022/01/13 12:35:31;;;;;;;46.00;19.67;;;7.10;99.90;;;;;;5118446;27;20039;-76
2022/01/13 12:38:18;;;;;;;40.75;16.20;;;7.10;99.90;;;;;;5124420;27;20106;-76
2022/01/13 12:41:03;;;;;;;43.55;18.77;;;7.20;99.90;;;;;;5124198;28;20031;-76
2022/01/13 12:46:13;;;;;;;42.90;17.02;;;7.20;99.90;;;;;;5121202;27;20125;-76
2022/01/13 12:48:41;;;;;;;54.13;19.95;;;7.30;99.90;;;;;;5123450;27;20114;-76
2022/01/13 12:51:13;;;;;;;46.75;18.85;;;7.30;99.90;;;;;;5106790;27;20046;-76
2022/01/13 12:53:39;;;;;;;44.53;19.30;;;7.40;99.90;;;;;;5120996;27;20050;-76
2022/01/13 12:56:08;;;;;;;45.22;19.83;;;7.40;99.90;;;;;;5120849;27;20043;-76
2022/01/13 12:58:38;;;;;;;43.38;19.10;;;7.50;99.90;;;;;;5107900;27;20094;-76
2022/01/13 13:01:11;;;;;;;43.13;20.30;;;7.50;99.90;;;;;;5121229;27;20062;-76
2022/01/13 13:03:37;;;;;;;47.42;18.95;;;7.50;99.90;;;;;;5127238;27;20047;-76
2022/01/13 13:06:16;;;;;;;43.00;18.58;;;7.50;99.90;;;;;;5124122;27;20039;-76
2022/01/13 13:08:47;;;;;;;43.20;18.13;;;7.60;99.90;;;;;;5127520;27;20038;-77